sensor_id;sensor_type;location;lat;lon;timestamp;pressure;altitude;pressure_sealevel;temperature
74485;BMP280;62942;52.462;10.846;2023-07-31T00:00:36;100290;;;
74485;BMP280;62942;52.462;10.846;2023-07-31T00:01:36;100280;;;
74485;BMP280;62942;52.462;10.846;2023-07-31T00:02:46;100300;;;
74485;BMP280;62942;52.462;10.846;2023-07-31T00:03:46;100290;;;
74485;BMP280;62942;52.462;10.846;2023-07-31T00:04:56;100290;;;
74485;BMP280;62942;52.462;10.846;2023-07-31T00:06:06;100290;;;
74485;BMP280;62942;52.462;10.846;2023-07-31T00:07:16;100280;;;
74485;BMP280;62942;52.462;10.846;2023-07-31T00:08:16;100280;;;
74485;BMP280;62942;52.462;10.846;2023-07-31T00:09:26;100280;;;
74485;BMP280;62942;52.462;10.846;2023-07-31T00:10:26;100280;;;
74485;BMP280;62942;52.462;10.846;2023-07-31T00:11:36;100270;;;
74485;BMP280;62942;52.462;10.846;2023-07-31T00:12:37;100280;;;
74485;BMP280;62942;52.462;10.846;2023-07-31T00:13:46;100280;;;
74485;BMP280;62942;52.462;10.846;2023-07-31T00:14:56;100280;;;
74485;BMP280;62942;52.462;10.846;2023-07-31T00:15:56;100280;;;
74485;BMP280;62942;52.462;10.846;2023-07-31T00:17:06;100270;;;
74485;BMP280;62942;52.462;10.846;2023-07-31T00:18:06;100280;;;
74485;BMP280;62942;52.462;10.846;2023-07-31T00:19:06;100260;;;
74485;BMP280;62942;52.462;10.846;2023-07-31T00:20:16;100270;;;
74485;BMP280;62942;52.462;10.846;2023-07-31T00:21:16;100270;;;
74485;BMP280;62942;52.462;10.846;2023-07-31T00:22:26;100270;;;
74485;BMP280;62942;52.462;10.846;2023-07-31T00:23:26;100260;;;
74485;BMP280;62942;52.462;10.846;2023-07-31T00:24:36;100270;;;
74485;BMP280;62942;52.462;10.846;2023-07-31T00:25:46;100270;;;
74485;BMP280;62942;52.462;10.846;2023-07-31T00:26:56;100270;;;
74485;BMP280;62942;52.462;10.846;2023-07-31T00:28:06;100270;;;
74485;BMP280;62942;52.462;10.846;2023-07-31T00:29:16;100260;;;
74485;BMP280;62942;52.462;10.846;2023-07-31T00:30:26;100260;;;
74485;BMP280;62942;52.462;10.846;2023-07-31T00:31:26;100260;;;
74485;BMP280;62942;52.462;10.846;2023-07-31T00:32:36;100250;;;
74485;BMP280;62942;52.462;10.846;2023-07-31T00:33:37;100260;;;
74485;BMP280;62942;52.462;10.846;2023-07-31T00:34:36;100250;;;
74485;BMP280;62942;52.462;10.846;2023-07-31T00:35:46;100250;;;
74485;BMP280;62942;52.462;10.846;2023-07-31T00:36:46;100250;;;
74485;BMP280;62942;52.462;10.846;2023-07-31T00:37:58;100240;;;
74485;BMP280;62942;52.462;10.846;2023-07-31T00:39:06;100250;;;
74485;BMP280;62942;52.462;10.846;2023-07-31T00:40:06;100240;;;
74485;BMP280;62942;52.462;10.846;2023-07-31T00:41:16;100240;;;
74485;BMP280;62942;52.462;10.846;2023-07-31T00:42:26;100240;;;
74485;BMP280;62942;52.462;10.846;2023-07-31T00:43:36;100240;;;
74485;BMP280;62942;52.462;10.846;2023-07-31T00:44:46;100240;;;
74485;BMP280;62942;52.462;10.846;2023-07-31T00:45:46;100240;;;
74485;BMP280;62942;52.462;10.846;2023-07-31T00:46:56;100240;;;
74485;BMP280;62942;52.462;10.846;2023-07-31T00:47:56;100240;;;
74485;BMP280;62942;52.462;10.846;2023-07-31T00:49:06;100240;;;
74485;BMP280;62942;52.462;10.846;2023-07-31T00:50:06;100240;;;
74485;BMP280;62942;52.462;10.846;2023-07-31T00:51:16;100240;;;
74485;BMP280;62942;52.462;10.846;2023-07-31T00:52:26;100240;;;
74485;BMP280;62942;52.462;10.846;2023-07-31T00:53:26;100240;;;
74485;BMP280;62942;52.462;10.846;2023-07-31T00:54:36;100230;;;
74485;BMP280;62942;52.462;10.846;2023-07-31T00:55:46;100230;;;
74485;BMP280;62942;52.462;10.846;2023-07-31T00:56:56;100230;;;
74485;BMP280;62942;52.462;10.846;2023-07-31T00:58:06;100230;;;
74485;BMP280;62942;52.462;10.846;2023-07-31T00:59:06;100230;;;
74485;BMP280;62942;52.462;10.846;2023-07-31T01:00:16;100220;;;
74485;BMP280;62942;52.462;10.846;2023-07-31T01:01:26;100220;;;
74485;BMP280;62942;52.462;10.846;2023-07-31T01:02:36;100220;;;
74485;BMP280;62942;52.462;10.846;2023-07-31T01:03:36;100220;;;
74485;BMP280;62942;52.462;10.846;2023-07-31T01:04:46;100210;;;
74485;BMP280;62942;52.462;10.846;2023-07-31T01:05:49;100220;;;
74485;BMP280;62942;52.462;10.846;2023-07-31T01:06:48;100210;;;
74485;BMP280;62942;52.462;10.846;2023-07-31T01:07:57;100210;;;
74485;BMP280;62942;52.462;10.846;2023-07-31T01:08:57;100210;;;
74485;BMP280;62942;52.462;10.846;2023-07-31T01:10:08;100210;;;
74485;BMP280;62942;52.462;10.846;2023-07-31T01:11:08;100210;;;
74485;BMP280;62942;52.462;10.846;2023-07-31T01:12:06;100210;;;
74485;BMP280;62942;52.462;10.846;2023-07-31T01:13:16;100210;;;
74485;BMP280;62942;52.462;10.846;2023-07-31T01:14:26;100210;;;
74485;BMP280;62942;52.462;10.846;2023-07-31T01:15:36;100200;;;
74485;BMP280;62942;52.462;10.846;2023-07-31T01:16:36;100200;;;
74485;BMP280;62942;52.462;10.846;2023-07-31T01:17:46;100190;;;
74485;BMP280;62942;52.462;10.846;2023-07-31T01:18:56;100190;;;
74485;BMP280;62942;52.462;10.846;2023-07-31T01:20:08;100200;;;
74485;BMP280;62942;52.462;10.846;2023-07-31T01:21:10;100190;;;
74485;BMP280;62942;52.462;10.846;2023-07-31T01:22:21;100190;;;
74485;BMP280;62942;52.462;10.846;2023-07-31T01:23:31;100190;;;
74485;BMP280;62942;52.462;10.846;2023-07-31T01:24:38;100190;;;
74485;BMP280;62942;52.462;10.846;2023-07-31T01:25:47;100190;;;
74485;BMP280;62942;52.462;10.846;2023-07-31T01:26:47;100180;;;
74485;BMP280;62942;52.462;10.846;2023-07-31T01:27:58;100170;;;
74485;BMP280;62942;52.462;10.846;2023-07-31T01:29:07;100170;;;
74485;BMP280;62942;52.462;10.846;2023-07-31T01:30:16;100170;;;
74485;BMP280;62942;52.462;10.846;2023-07-31T01:31:26;100160;;;
74485;BMP280;62942;52.462;10.846;2023-07-31T01:32:26;100170;;;
74485;BMP280;62942;52.462;10.846;2023-07-31T01:33:26;100160;;;
74485;BMP280;62942;52.462;10.846;2023-07-31T01:34:26;100160;;;
74485;BMP280;62942;52.462;10.846;2023-07-31T01:35:36;100150;;;
74485;BMP280;62942;52.462;10.846;2023-07-31T01:36:36;100160;;;
74485;BMP280;62942;52.462;10.846;2023-07-31T01:37:36;100160;;;
74485;BMP280;62942;52.462;10.846;2023-07-31T01:38:36;100170;;;
74485;BMP280;62942;52.462;10.846;2023-07-31T01:39:46;100170;;;
74485;BMP280;62942;52.462;10.846;2023-07-31T01:40:56;100170;;;
74485;BMP280;62942;52.462;10.846;2023-07-31T01:42:06;100170;;;
74485;BMP280;62942;52.462;10.846;2023-07-31T01:43:06;100170;;;
74485;BMP280;62942;52.462;10.846;2023-07-31T01:44:16;100170;;;
74485;BMP280;62942;52.462;10.846;2023-07-31T01:45:26;100160;;;
74485;BMP280;62942;52.462;10.846;2023-07-31T01:46:36;100150;;;
74485;BMP280;62942;52.462;10.846;2023-07-31T01:47:46;100170;;;
74485;BMP280;62942;52.462;10.846;2023-07-31T01:48:56;100170;;;
74485;BMP280;62942;52.462;10.846;2023-07-31T01:49:56;100160;;;
74485;BMP280;62942;52.462;10.846;2023-07-31T01:51:06;100160;;;
74485;BMP280;62942;52.462;10.846;2023-07-31T01:52:16;100160;;;
74485;BMP280;62942;52.462;10.846;2023-07-31T01:53:26;100160;;;
74485;BMP280;62942;52.462;10.846;2023-07-31T01:54:36;100160;;;
74485;BMP280;62942;52.462;10.846;2023-07-31T01:55:46;100160;;;
74485;BMP280;62942;52.462;10.846;2023-07-31T01:56:46;100160;;;
74485;BMP280;62942;52.462;10.846;2023-07-31T01:57:56;100160;;;
74485;BMP280;62942;52.462;10.846;2023-07-31T01:59:06;100160;;;
74485;BMP280;62942;52.462;10.846;2023-07-31T02:00:16;100160;;;
74485;BMP280;62942;52.462;10.846;2023-07-31T02:01:26;100160;;;
74485;BMP280;62942;52.462;10.846;2023-07-31T02:02:36;100160;;;
74485;BMP280;62942;52.462;10.846;2023-07-31T02:03:46;100150;;;
74485;BMP280;62942;52.462;10.846;2023-07-31T02:04:56;100160;;;
74485;BMP280;62942;52.462;10.846;2023-07-31T02:05:56;100160;;;
74485;BMP280;62942;52.462;10.846;2023-07-31T02:07:06;100150;;;
74485;BMP280;62942;52.462;10.846;2023-07-31T02:08:06;100150;;;
74485;BMP280;62942;52.462;10.846;2023-07-31T02:09:06;100150;;;
74485;BMP280;62942;52.462;10.846;2023-07-31T02:10:16;100150;;;
74485;BMP280;62942;52.462;10.846;2023-07-31T02:11:16;100140;;;
74485;BMP280;62942;52.462;10.846;2023-07-31T02:12:16;100140;;;
74485;BMP280;62942;52.462;10.846;2023-07-31T02:13:16;100140;;;
74485;BMP280;62942;52.462;10.846;2023-07-31T02:14:26;100140;;;
74485;BMP280;62942;52.462;10.846;2023-07-31T02:15:26;100140;;;
74485;BMP280;62942;52.462;10.846;2023-07-31T02:16:36;100140;;;
74485;BMP280;62942;52.462;10.846;2023-07-31T02:17:36;100140;;;
74485;BMP280;62942;52.462;10.846;2023-07-31T02:18:46;100130;;;
74485;BMP280;62942;52.462;10.846;2023-07-31T02:19:46;100140;;;
74485;BMP280;62942;52.462;10.846;2023-07-31T02:20:56;100130;;;
74485;BMP280;62942;52.462;10.846;2023-07-31T02:21:56;100130;;;
74485;BMP280;62942;52.462;10.846;2023-07-31T02:23:06;100130;;;
74485;BMP280;62942;52.462;10.846;2023-07-31T02:24:06;100130;;;
74485;BMP280;62942;52.462;10.846;2023-07-31T02:25:06;100130;;;
74485;BMP280;62942;52.462;10.846;2023-07-31T02:26:16;100120;;;
74485;BMP280;62942;52.462;10.846;2023-07-31T02:27:26;100120;;;
74485;BMP280;62942;52.462;10.846;2023-07-31T02:28:26;100120;;;
74485;BMP280;62942;52.462;10.846;2023-07-31T02:29:26;100120;;;
74485;BMP280;62942;52.462;10.846;2023-07-31T02:30:36;100120;;;
74485;BMP280;62942;52.462;10.846;2023-07-31T02:31:46;100120;;;
74485;BMP280;62942;52.462;10.846;2023-07-31T02:32:56;100120;;;
74485;BMP280;62942;52.462;10.846;2023-07-31T02:33:56;100110;;;
74485;BMP280;62942;52.462;10.846;2023-07-31T02:35:06;100110;;;
74485;BMP280;62942;52.462;10.846;2023-07-31T02:36:16;100110;;;
74485;BMP280;62942;52.462;10.846;2023-07-31T02:37:26;100110;;;
74485;BMP280;62942;52.462;10.846;2023-07-31T02:38:36;100110;;;
74485;BMP280;62942;52.462;10.846;2023-07-31T02:39:36;100110;;;
74485;BMP280;62942;52.462;10.846;2023-07-31T02:40:46;100110;;;
74485;BMP280;62942;52.462;10.846;2023-07-31T02:41:46;100100;;;
74485;BMP280;62942;52.462;10.846;2023-07-31T02:42:46;100110;;;
74485;BMP280;62942;52.462;10.846;2023-07-31T02:43:56;100110;;;
74485;BMP280;62942;52.462;10.846;2023-07-31T02:44:56;100100;;;
74485;BMP280;62942;52.462;10.846;2023-07-31T02:46:06;100100;;;
74485;BMP280;62942;52.462;10.846;2023-07-31T02:47:06;100100;;;
74485;BMP280;62942;52.462;10.846;2023-07-31T02:48:06;100100;;;
74485;BMP280;62942;52.462;10.846;2023-07-31T02:49:16;100100;;;
74485;BMP280;62942;52.462;10.846;2023-07-31T02:50:26;100100;;;
74485;BMP280;62942;52.462;10.846;2023-07-31T02:51:36;100090;;;
74485;BMP280;62942;52.462;10.846;2023-07-31T02:52:46;100090;;;
74485;BMP280;62942;52.462;10.846;2023-07-31T02:53:56;100090;;;
74485;BMP280;62942;52.462;10.846;2023-07-31T02:54:56;100090;;;
74485;BMP280;62942;52.462;10.846;2023-07-31T02:56:06;100090;;;
74485;BMP280;62942;52.462;10.846;2023-07-31T02:57:16;100090;;;
74485;BMP280;62942;52.462;10.846;2023-07-31T02:58:26;100090;;;
74485;BMP280;62942;52.462;10.846;2023-07-31T02:59:27;100090;;;
74485;BMP280;62942;52.462;10.846;2023-07-31T03:00:36;100090;;;
74485;BMP280;62942;52.462;10.846;2023-07-31T03:01:36;100090;;;
74485;BMP280;62942;52.462;10.846;2023-07-31T03:02:46;100090;;;
74485;BMP280;62942;52.462;10.846;2023-07-31T03:03:46;100080;;;
74485;BMP280;62942;52.462;10.846;2023-07-31T03:04:56;100090;;;
74485;BMP280;62942;52.462;10.846;2023-07-31T03:05:56;100090;;;
74485;BMP280;62942;52.462;10.846;2023-07-31T03:06:56;100090;;;
74485;BMP280;62942;52.462;10.846;2023-07-31T03:08:06;100090;;;
74485;BMP280;62942;52.462;10.846;2023-07-31T03:09:06;100090;;;
74485;BMP280;62942;52.462;10.846;2023-07-31T03:10:06;100090;;;
74485;BMP280;62942;52.462;10.846;2023-07-31T03:11:16;100090;;;
74485;BMP280;62942;52.462;10.846;2023-07-31T03:12:16;100080;;;
74485;BMP280;62942;52.462;10.846;2023-07-31T03:13:26;100080;;;
74485;BMP280;62942;52.462;10.846;2023-07-31T03:14:26;100080;;;
74485;BMP280;62942;52.462;10.846;2023-07-31T03:15:36;100080;;;
74485;BMP280;62942;52.462;10.846;2023-07-31T03:16:46;100080;;;
74485;BMP280;62942;52.462;10.846;2023-07-31T03:17:56;100070;;;
74485;BMP280;62942;52.462;10.846;2023-07-31T03:18:56;100080;;;
74485;BMP280;62942;52.462;10.846;2023-07-31T03:19:56;100080;;;
74485;BMP280;62942;52.462;10.846;2023-07-31T03:21:06;100080;;;
74485;BMP280;62942;52.462;10.846;2023-07-31T03:22:16;100080;;;
74485;BMP280;62942;52.462;10.846;2023-07-31T03:23:16;100080;;;
74485;BMP280;62942;52.462;10.846;2023-07-31T03:24:26;100080;;;
74485;BMP280;62942;52.462;10.846;2023-07-31T03:25:26;100080;;;
74485;BMP280;62942;52.462;10.846;2023-07-31T03:26:36;100080;;;
74485;BMP280;62942;52.462;10.846;2023-07-31T03:27:46;100080;;;
74485;BMP280;62942;52.462;10.846;2023-07-31T03:28:56;100080;;;
74485;BMP280;62942;52.462;10.846;2023-07-31T03:29:56;100080;;;
74485;BMP280;62942;52.462;10.846;2023-07-31T03:31:06;100080;;;
74485;BMP280;62942;52.462;10.846;2023-07-31T03:32:16;100080;;;
74485;BMP280;62942;52.462;10.846;2023-07-31T03:33:16;100080;;;
74485;BMP280;62942;52.462;10.846;2023-07-31T03:34:26;100070;;;
74485;BMP280;62942;52.462;10.846;2023-07-31T03:35:26;100080;;;
74485;BMP280;62942;52.462;10.846;2023-07-31T03:36:36;100080;;;
74485;BMP280;62942;52.462;10.846;2023-07-31T03:37:36;100080;;;
74485;BMP280;62942;52.462;10.846;2023-07-31T03:38:46;100080;;;
74485;BMP280;62942;52.462;10.846;2023-07-31T03:39:46;100080;;;
74485;BMP280;62942;52.462;10.846;2023-07-31T03:40:56;100090;;;
74485;BMP280;62942;52.462;10.846;2023-07-31T03:42:06;100090;;;
74485;BMP280;62942;52.462;10.846;2023-07-31T03:43:16;100090;;;
74485;BMP280;62942;52.462;10.846;2023-07-31T03:44:16;100090;;;
74485;BMP280;62942;52.462;10.846;2023-07-31T03:45:26;100090;;;
74485;BMP280;62942;52.462;10.846;2023-07-31T03:46:36;100090;;;
74485;BMP280;62942;52.462;10.846;2023-07-31T03:47:36;100080;;;
74485;BMP280;62942;52.462;10.846;2023-07-31T03:48:46;100090;;;
74485;BMP280;62942;52.462;10.846;2023-07-31T03:49:46;100090;;;
74485;BMP280;62942;52.462;10.846;2023-07-31T03:50:46;100090;;;
74485;BMP280;62942;52.462;10.846;2023-07-31T03:51:56;100080;;;
74485;BMP280;62942;52.462;10.846;2023-07-31T03:52:56;100080;;;
74485;BMP280;62942;52.462;10.846;2023-07-31T03:54:06;100080;;;
74485;BMP280;62942;52.462;10.846;2023-07-31T03:55:06;100090;;;
74485;BMP280;62942;52.462;10.846;2023-07-31T03:56:06;100080;;;
74485;BMP280;62942;52.462;10.846;2023-07-31T03:57:16;100080;;;
74485;BMP280;62942;52.462;10.846;2023-07-31T03:58:26;100090;;;
74485;BMP280;62942;52.462;10.846;2023-07-31T03:59:36;100090;;;
74485;BMP280;62942;52.462;10.846;2023-07-31T04:00:46;100090;;;
74485;BMP280;62942;52.462;10.846;2023-07-31T04:01:56;100090;;;
74485;BMP280;62942;52.462;10.846;2023-07-31T04:02:56;100090;;;
74485;BMP280;62942;52.462;10.846;2023-07-31T04:03:56;100090;;;
74485;BMP280;62942;52.462;10.846;2023-07-31T04:05:06;100090;;;
74485;BMP280;62942;52.462;10.846;2023-07-31T04:06:06;100090;;;
74485;BMP280;62942;52.462;10.846;2023-07-31T04:07:06;100090;;;
74485;BMP280;62942;52.462;10.846;2023-07-31T04:08:16;100090;;;
74485;BMP280;62942;52.462;10.846;2023-07-31T04:09:16;100090;;;
74485;BMP280;62942;52.462;10.846;2023-07-31T04:10:26;100090;;;
74485;BMP280;62942;52.462;10.846;2023-07-31T04:11:26;100090;;;
74485;BMP280;62942;52.462;10.846;2023-07-31T04:12:36;100090;;;
74485;BMP280;62942;52.462;10.846;2023-07-31T04:13:46;100080;;;
74485;BMP280;62942;52.462;10.846;2023-07-31T04:14:46;100090;;;
74485;BMP280;62942;52.462;10.846;2023-07-31T04:15:56;100090;;;
74485;BMP280;62942;52.462;10.846;2023-07-31T04:16:56;100090;;;
74485;BMP280;62942;52.462;10.846;2023-07-31T04:18:06;100090;;;
74485;BMP280;62942;52.462;10.846;2023-07-31T04:19:16;100090;;;
74485;BMP280;62942;52.462;10.846;2023-07-31T04:20:26;100090;;;
74485;BMP280;62942;52.462;10.846;2023-07-31T04:21:26;100090;;;
74485;BMP280;62942;52.462;10.846;2023-07-31T04:22:36;100080;;;
74485;BMP280;62942;52.462;10.846;2023-07-31T04:23:36;100090;;;
74485;BMP280;62942;52.462;10.846;2023-07-31T04:24:46;100090;;;
74485;BMP280;62942;52.462;10.846;2023-07-31T04:25:56;100080;;;
74485;BMP280;62942;52.462;10.846;2023-07-31T04:27:05;100090;;;
74485;BMP280;62942;52.462;10.846;2023-07-31T04:28:06;100090;;;
74485;BMP280;62942;52.462;10.846;2023-07-31T04:29:16;100080;;;
74485;BMP280;62942;52.462;10.846;2023-07-31T04:30:26;100080;;;
74485;BMP280;62942;52.462;10.846;2023-07-31T04:31:36;100080;;;
74485;BMP280;62942;52.462;10.846;2023-07-31T04:32:46;100080;;;
74485;BMP280;62942;52.462;10.846;2023-07-31T04:33:56;100080;;;
74485;BMP280;62942;52.462;10.846;2023-07-31T04:35:06;100080;;;
74485;BMP280;62942;52.462;10.846;2023-07-31T04:36:15;100080;;;
74485;BMP280;62942;52.462;10.846;2023-07-31T04:37:16;100070;;;
74485;BMP280;62942;52.462;10.846;2023-07-31T04:38:26;100070;;;
74485;BMP280;62942;52.462;10.846;2023-07-31T04:39:35;100070;;;
74485;BMP280;62942;52.462;10.846;2023-07-31T04:40:46;100080;;;
74485;BMP280;62942;52.462;10.846;2023-07-31T04:41:56;100070;;;
74485;BMP280;62942;52.462;10.846;2023-07-31T04:43:06;100080;;;
74485;BMP280;62942;52.462;10.846;2023-07-31T04:44:15;100080;;;
74485;BMP280;62942;52.462;10.846;2023-07-31T04:45:26;100080;;;
74485;BMP280;62942;52.462;10.846;2023-07-31T04:46:35;100080;;;
74485;BMP280;62942;52.462;10.846;2023-07-31T04:47:46;100080;;;
74485;BMP280;62942;52.462;10.846;2023-07-31T04:48:55;100080;;;
74485;BMP280;62942;52.462;10.846;2023-07-31T04:49:55;100070;;;
74485;BMP280;62942;52.462;10.846;2023-07-31T04:50:56;100070;;;
74485;BMP280;62942;52.462;10.846;2023-07-31T04:51:55;100070;;;
74485;BMP280;62942;52.462;10.846;2023-07-31T04:53:06;100070;;;
74485;BMP280;62942;52.462;10.846;2023-07-31T04:54:16;100070;;;
74485;BMP280;62942;52.462;10.846;2023-07-31T04:55:25;100070;;;
74485;BMP280;62942;52.462;10.846;2023-07-31T04:56:35;100070;;;
74485;BMP280;62942;52.462;10.846;2023-07-31T04:57:35;100070;;;
74485;BMP280;62942;52.462;10.846;2023-07-31T04:58:46;100070;;;
74485;BMP280;62942;52.462;10.846;2023-07-31T04:59:55;100070;;;
74485;BMP280;62942;52.462;10.846;2023-07-31T05:01:06;100070;;;
74485;BMP280;62942;52.462;10.846;2023-07-31T05:02:15;100070;;;
74485;BMP280;62942;52.462;10.846;2023-07-31T05:03:16;100070;;;
74485;BMP280;62942;52.462;10.846;2023-07-31T05:04:15;100070;;;
74485;BMP280;62942;52.462;10.846;2023-07-31T05:05:25;100070;;;
74485;BMP280;62942;52.462;10.846;2023-07-31T05:06:35;100070;;;
74485;BMP280;62942;52.462;10.846;2023-07-31T05:07:35;100070;;;
74485;BMP280;62942;52.462;10.846;2023-07-31T05:08:45;100080;;;
74485;BMP280;62942;52.462;10.846;2023-07-31T05:09:55;100070;;;
74485;BMP280;62942;52.462;10.846;2023-07-31T05:10:55;100070;;;
74485;BMP280;62942;52.462;10.846;2023-07-31T05:12:06;100070;;;
74485;BMP280;62942;52.462;10.846;2023-07-31T05:13:15;100070;;;
74485;BMP280;62942;52.462;10.846;2023-07-31T05:14:25;100070;;;
74485;BMP280;62942;52.462;10.846;2023-07-31T05:15:35;100080;;;
74485;BMP280;62942;52.462;10.846;2023-07-31T05:16:35;100080;;;
74485;BMP280;62942;52.462;10.846;2023-07-31T05:17:45;100080;;;
74485;BMP280;62942;52.462;10.846;2023-07-31T05:18:46;100070;;;
74485;BMP280;62942;52.462;10.846;2023-07-31T05:19:56;100070;;;
74485;BMP280;62942;52.462;10.846;2023-07-31T05:21:05;100070;;;
74485;BMP280;62942;52.462;10.846;2023-07-31T05:22:05;100080;;;
74485;BMP280;62942;52.462;10.846;2023-07-31T05:23:15;100070;;;
74485;BMP280;62942;52.462;10.846;2023-07-31T05:24:25;100070;;;
74485;BMP280;62942;52.462;10.846;2023-07-31T05:25:25;100080;;;
74485;BMP280;62942;52.462;10.846;2023-07-31T05:26:35;100070;;;
74485;BMP280;62942;52.462;10.846;2023-07-31T05:27:35;100070;;;
74485;BMP280;62942;52.462;10.846;2023-07-31T05:28:36;100070;;;
74485;BMP280;62942;52.462;10.846;2023-07-31T05:29:45;100070;;;
74485;BMP280;62942;52.462;10.846;2023-07-31T05:30:58;100070;;;
74485;BMP280;62942;52.462;10.846;2023-07-31T05:32:06;100070;;;
74485;BMP280;62942;52.462;10.846;2023-07-31T05:33:15;100070;;;
74485;BMP280;62942;52.462;10.846;2023-07-31T05:34:15;100060;;;
74485;BMP280;62942;52.462;10.846;2023-07-31T05:35:25;100070;;;
74485;BMP280;62942;52.462;10.846;2023-07-31T05:36:35;100070;;;
74485;BMP280;62942;52.462;10.846;2023-07-31T05:37:45;100060;;;
74485;BMP280;62942;52.462;10.846;2023-07-31T05:38:45;100060;;;
74485;BMP280;62942;52.462;10.846;2023-07-31T05:39:45;100060;;;
74485;BMP280;62942;52.462;10.846;2023-07-31T05:40:55;100060;;;
74485;BMP280;62942;52.462;10.846;2023-07-31T05:42:05;100060;;;
74485;BMP280;62942;52.462;10.846;2023-07-31T05:43:15;100060;;;
74485;BMP280;62942;52.462;10.846;2023-07-31T05:44:25;100060;;;
74485;BMP280;62942;52.462;10.846;2023-07-31T05:45:36;100060;;;
74485;BMP280;62942;52.462;10.846;2023-07-31T05:46:45;100060;;;
74485;BMP280;62942;52.462;10.846;2023-07-31T05:47:45;100060;;;
74485;BMP280;62942;52.462;10.846;2023-07-31T05:48:55;100050;;;
74485;BMP280;62942;52.462;10.846;2023-07-31T05:50:06;100050;;;
74485;BMP280;62942;52.462;10.846;2023-07-31T05:51:15;100050;;;
74485;BMP280;62942;52.462;10.846;2023-07-31T05:52:25;100050;;;
74485;BMP280;62942;52.462;10.846;2023-07-31T05:53:35;100050;;;
74485;BMP280;62942;52.462;10.846;2023-07-31T05:54:35;100050;;;
74485;BMP280;62942;52.462;10.846;2023-07-31T05:55:35;100050;;;
74485;BMP280;62942;52.462;10.846;2023-07-31T05:56:45;100050;;;
74485;BMP280;62942;52.462;10.846;2023-07-31T05:57:55;100040;;;
74485;BMP280;62942;52.462;10.846;2023-07-31T05:59:05;100050;;;
74485;BMP280;62942;52.462;10.846;2023-07-31T06:00:06;100050;;;
74485;BMP280;62942;52.462;10.846;2023-07-31T06:01:16;100050;;;
74485;BMP280;62942;52.462;10.846;2023-07-31T06:02:25;100040;;;
74485;BMP280;62942;52.462;10.846;2023-07-31T06:03:35;100050;;;
74485;BMP280;62942;52.462;10.846;2023-07-31T06:04:45;100040;;;
74485;BMP280;62942;52.462;10.846;2023-07-31T06:05:55;100040;;;
74485;BMP280;62942;52.462;10.846;2023-07-31T06:07:05;100040;;;
74485;BMP280;62942;52.462;10.846;2023-07-31T06:08:15;100040;;;
74485;BMP280;62942;52.462;10.846;2023-07-31T06:09:15;100040;;;
74485;BMP280;62942;52.462;10.846;2023-07-31T06:10:15;100040;;;
74485;BMP280;62942;52.462;10.846;2023-07-31T06:11:25;100040;;;
74485;BMP280;62942;52.462;10.846;2023-07-31T06:12:35;100040;;;
74485;BMP280;62942;52.462;10.846;2023-07-31T06:13:45;100040;;;
74485;BMP280;62942;52.462;10.846;2023-07-31T06:14:45;100040;;;
74485;BMP280;62942;52.462;10.846;2023-07-31T06:15:45;100040;;;
74485;BMP280;62942;52.462;10.846;2023-07-31T06:16:55;100040;;;
74485;BMP280;62942;52.462;10.846;2023-07-31T06:17:55;100040;;;
74485;BMP280;62942;52.462;10.846;2023-07-31T06:19:05;100040;;;
74485;BMP280;62942;52.462;10.846;2023-07-31T06:20:15;100040;;;
74485;BMP280;62942;52.462;10.846;2023-07-31T06:21:25;100040;;;
74485;BMP280;62942;52.462;10.846;2023-07-31T06:22:35;100040;;;
74485;BMP280;62942;52.462;10.846;2023-07-31T06:23:35;100040;;;
74485;BMP280;62942;52.462;10.846;2023-07-31T06:24:46;100030;;;
74485;BMP280;62942;52.462;10.846;2023-07-31T06:25:56;100040;;;
74485;BMP280;62942;52.462;10.846;2023-07-31T06:27:06;100040;;;
74485;BMP280;62942;52.462;10.846;2023-07-31T06:28:15;100040;;;
74485;BMP280;62942;52.462;10.846;2023-07-31T06:29:15;100030;;;
74485;BMP280;62942;52.462;10.846;2023-07-31T06:30:25;100030;;;
74485;BMP280;62942;52.462;10.846;2023-07-31T06:31:25;100030;;;
74485;BMP280;62942;52.462;10.846;2023-07-31T06:32:25;100030;;;
74485;BMP280;62942;52.462;10.846;2023-07-31T06:33:25;100030;;;
74485;BMP280;62942;52.462;10.846;2023-07-31T06:34:35;100030;;;
74485;BMP280;62942;52.462;10.846;2023-07-31T06:35:35;100020;;;
74485;BMP280;62942;52.462;10.846;2023-07-31T06:36:46;100030;;;
74485;BMP280;62942;52.462;10.846;2023-07-31T06:37:55;100030;;;
74485;BMP280;62942;52.462;10.846;2023-07-31T06:39:05;100030;;;
74485;BMP280;62942;52.462;10.846;2023-07-31T06:40:06;100030;;;
74485;BMP280;62942;52.462;10.846;2023-07-31T06:41:15;100030;;;
74485;BMP280;62942;52.462;10.846;2023-07-31T06:42:15;100030;;;
74485;BMP280;62942;52.462;10.846;2023-07-31T06:43:15;100030;;;
74485;BMP280;62942;52.462;10.846;2023-07-31T06:44:15;100020;;;
74485;BMP280;62942;52.462;10.846;2023-07-31T06:45:25;100020;;;
74485;BMP280;62942;52.462;10.846;2023-07-31T06:46:35;100020;;;
74485;BMP280;62942;52.462;10.846;2023-07-31T06:47:45;100020;;;
74485;BMP280;62942;52.462;10.846;2023-07-31T06:48:45;100020;;;
74485;BMP280;62942;52.462;10.846;2023-07-31T06:49:45;100020;;;
74485;BMP280;62942;52.462;10.846;2023-07-31T06:50:55;100020;;;
74485;BMP280;62942;52.462;10.846;2023-07-31T06:51:55;100020;;;
74485;BMP280;62942;52.462;10.846;2023-07-31T06:52:56;100020;;;
74485;BMP280;62942;52.462;10.846;2023-07-31T06:53:55;100020;;;
74485;BMP280;62942;52.462;10.846;2023-07-31T06:55:03;100020;;;
74485;BMP280;62942;52.462;10.846;2023-07-31T06:56:05;100010;;;
74485;BMP280;62942;52.462;10.846;2023-07-31T06:57:06;100010;;;
74485;BMP280;62942;52.462;10.846;2023-07-31T06:58:05;100020;;;